Time;durP1;ratioP1;P1;durP2;ratioP2;P2;SDS_P1;SDS_P2;PMS_P1;PMS_P2;Temp;Humidity;BMP_temperature;BMP_pressure;BME280_temperature;BME280_humidity;BME280_pressure;Samples;Min_cycle;Max_cycle;Signal;HPM_P1;HPM_P2
2023/08/25 00:01:34;;;;;;;9.20;4.50;;;;;;;;;;103608;1291;547952;-77
2023/08/25 00:05:11;;;;;;;10.40;5.00;;;;;;;;;;103554;1292;547964;-79
2023/08/25 00:08:43;;;;;;;8.40;4.70;;;;;;;;;;103883;1289;546721;-80
2023/08/25 00:12:20;;;;;;;8.80;4.70;;;;;;;;;;103802;1289;544785;-79
2023/08/25 00:16:04;;;;;;;10.60;5.80;;;;;;;;;;103693;1288;547983;-79
2023/08/25 00:19:41;;;;;;;9.00;4.40;;;;;;;;;;103892;1292;548071;-79
2023/08/25 00:23:18;;;;;;;8.50;4.90;;;;;;;;;;103641;1289;547962;-79
2023/08/25 00:26:50;;;;;;;9.10;5.20;;;;;;;;;;104387;1286;545289;-78
2023/08/25 00:30:33;;;;;;;8.90;5.10;;;;;;;;;;103449;1297;548067;-78
2023/08/25 00:34:06;;;;;;;9.90;4.80;;;;;;;;;;103749;1289;545088;-78
2023/08/25 00:37:48;;;;;;;8.80;4.50;;;;;;;;;;103324;1294;547980;-79
2023/08/25 00:41:26;;;;;;;7.80;4.50;;;;;;;;;;103591;1291;546075;-79
2023/08/25 00:45:04;;;;;;;8.90;4.70;;;;;;;;;;103631;1292;547801;-78
2023/08/25 00:48:41;;;;;;;8.40;4.60;;;;;;;;;;103952;1288;547969;-79
2023/08/25 00:52:19;;;;;;;8.70;4.90;;;;;;;;;;103289;1294;547912;-78
2023/08/25 00:55:56;;;;;;;8.60;4.30;;;;;;;;;;103491;1295;546158;-79
2023/08/25 00:59:33;;;;;;;8.80;4.30;;;;;;;;;;103455;1297;547970;-79
2023/08/25 01:03:05;;;;;;;7.00;4.20;;;;;;;;;;104071;1289;545644;-78
2023/08/25 01:06:48;;;;;;;9.10;4.80;;;;;;;;;;103502;1294;549120;-79
2023/08/25 01:10:24;;;;;;;9.60;4.70;;;;;;;;;;103743;1292;546069;-79
2023/08/25 01:14:14;;;;;;;8.00;4.20;;;;;;;;;;103541;1291;548147;-79
2023/08/25 01:17:40;;;;;;;9.90;4.50;;;;;;;;;;103632;1295;548019;-78
2023/08/25 01:21:19;;;;;;;9.80;4.80;;;;;;;;;;103640;1292;547987;-78
2023/08/25 01:25:00;;;;;;;9.40;4.30;;;;;;;;;;103556;1295;547815;-78
2023/08/25 01:28:33;;;;;;;10.00;5.20;;;;;;;;;;103682;1291;546690;-78
2023/08/25 01:32:10;;;;;;;8.90;5.30;;;;;;;;;;103505;1291;548196;-78
2023/08/25 01:35:58;;;;;;;7.70;4.40;;;;;;;;;;103757;1289;548204;-78
2023/08/25 01:39:27;;;;;;;9.30;4.60;;;;;;;;;;103496;1292;548001;-78
2023/08/25 01:43:04;;;;;;;9.20;4.40;;;;;;;;;;103343;1295;547971;-78
2023/08/25 01:46:35;;;;;;;10.00;5.00;;;;;;;;;;103874;1301;545730;-78
2023/08/25 01:50:13;;;;;;;9.30;5.00;;;;;;;;;;103751;1288;545902;-78
2023/08/25 01:53:55;;;;;;;9.60;4.70;;;;;;;;;;103655;1290;547987;-78
2023/08/25 01:57:27;;;;;;;7.60;4.20;;;;;;;;;;103752;1288;545758;-78
2023/08/25 02:01:10;;;;;;;8.00;4.50;;;;;;;;;;103653;1289;548014;-79
2023/08/25 02:04:47;;;;;;;10.00;4.90;;;;;;;;;;103505;1296;548151;-78
2023/08/25 02:08:25;;;;;;;9.80;4.80;;;;;;;;;;103642;1292;548562;-79
2023/08/25 02:12:02;;;;;;;8.60;4.80;;;;;;;;;;103525;1295;548115;-79
2023/08/25 02:15:34;;;;;;;12.10;4.50;;;;;;;;;;103776;1291;545598;-79
2023/08/25 02:19:12;;;;;;;8.50;4.60;;;;;;;;;;103698;1292;545148;-79
2023/08/25 02:22:55;;;;;;;11.30;5.30;;;;;;;;;;103522;1292;547998;-79
2023/08/25 02:26:27;;;;;;;10.70;5.30;;;;;;;;;;104850;1289;544937;-78
2023/08/25 02:30:05;;;;;;;9.70;5.00;;;;;;;;;;103775;1302;544881;-79
2023/08/25 02:33:47;;;;;;;8.10;4.70;;;;;;;;;;103758;1288;547957;-79
2023/08/25 02:37:25;;;;;;;9.00;5.20;;;;;;;;;;103689;1290;547780;-79
2023/08/25 02:40:56;;;;;;;8.60;5.50;;;;;;;;;;103770;1292;544756;-79
2023/08/25 02:44:39;;;;;;;11.50;5.60;;;;;;;;;;103513;1291;546159;-79
2023/08/25 02:48:17;;;;;;;11.30;5.70;;;;;;;;;;103340;1293;548226;-79
2023/08/25 02:51:56;;;;;;;9.90;5.50;;;;;;;;;;103343;1295;548232;-78
2023/08/25 02:55:27;;;;;;;9.70;5.50;;;;;;;;;;103751;1291;545860;-79
2023/08/25 02:59:09;;;;;;;9.40;6.00;;;;;;;;;;103721;1289;548051;-79
2023/08/25 03:02:50;;;;;;;11.30;6.90;;;;;;;;;;103491;1293;547901;-78
2023/08/25 03:06:24;;;;;;;10.40;5.80;;;;;;;;;;103664;1292;548128;-79
2023/08/25 03:10:02;;;;;;;11.00;6.40;;;;;;;;;;103528;1291;546311;-78
2023/08/25 03:13:39;;;;;;;12.00;6.50;;;;;;;;;;103612;1289;547954;-77
2023/08/25 03:17:17;;;;;;;9.60;6.60;;;;;;;;;;103813;1289;547982;-80
2023/08/25 03:20:54;;;;;;;10.40;5.80;;;;;;;;;;103562;1293;548390;-77
2023/08/25 03:24:28;;;;;;;11.40;6.50;;;;;;;;;;103498;1291;548575;-80
2023/08/25 03:28:09;;;;;;;10.80;6.60;;;;;;;;;;103639;1289;547917;-79
2023/08/25 03:31:47;;;;;;;9.20;6.40;;;;;;;;;;103817;1288;547981;-79
2023/08/25 03:35:20;;;;;;;9.20;6.50;;;;;;;;;;103581;1292;548089;-84
2023/08/25 03:39:02;;;;;;;8.20;6.10;;;;;;;;;;103685;1290;547809;-82
2023/08/25 03:42:39;;;;;;;11.80;6.70;;;;;;;;;;103860;1300;548107;-83
2023/08/25 03:46:13;;;;;;;9.80;6.60;;;;;;;;;;103697;1291;548287;-78
2023/08/25 03:49:54;;;;;;;11.20;6.70;;;;;;;;;;103565;1293;547761;-78
2023/08/25 03:53:26;;;;;;;9.10;6.20;;;;;;;;;;103359;1298;544943;-80
2023/08/25 03:57:09;;;;;;;9.80;6.30;;;;;;;;;;103953;1286;548024;-78
2023/08/25 04:00:50;;;;;;;12.90;6.80;;;;;;;;;;103667;1294;548534;-77
2023/08/25 04:04:24;;;;;;;8.90;5.50;;;;;;;;;;103620;1291;548087;-85
2023/08/25 04:07:56;;;;;;;9.30;6.00;;;;;;;;;;103806;1291;545416;-84
2023/08/25 04:11:39;;;;;;;9.20;6.30;;;;;;;;;;103631;1292;548097;-76
2023/08/25 04:15:19;;;;;;;10.00;6.60;;;;;;;;;;103488;1305;548059;-80
2023/08/25 04:18:48;;;;;;;10.10;6.60;;;;;;;;;;103806;1289;544892;-82
2023/08/25 04:22:28;;;;;;;10.20;6.10;;;;;;;;;;103512;1292;548416;-84
2023/08/25 04:26:08;;;;;;;12.50;6.30;;;;;;;;;;103638;1295;547775;-79
2023/08/25 04:29:48;;;;;;;8.40;6.00;;;;;;;;;;103498;1291;547810;-77
2023/08/25 04:33:23;;;;;;;10.70;6.30;;;;;;;;;;103342;1294;547842;-78
2023/08/25 04:37:01;;;;;;;10.00;6.80;;;;;;;;;;103607;1292;548104;-79
2023/08/25 04:40:39;;;;;;;12.00;6.00;;;;;;;;;;103660;1289;547853;-79
2023/08/25 04:44:10;;;;;;;10.60;5.70;;;;;;;;;;103929;1288;544992;-77
2023/08/25 04:47:54;;;;;;;10.90;6.00;;;;;;;;;;103674;1290;547890;-81
2023/08/25 04:51:31;;;;;;;13.00;6.90;;;;;;;;;;103490;1293;548133;-84
2023/08/25 04:55:10;;;;;;;10.70;6.80;;;;;;;;;;103645;1289;547767;-80
2023/08/25 04:58:46;;;;;;;11.20;5.30;;;;;;;;;;103532;1304;547991;-77
2023/08/25 05:02:23;;;;;;;12.00;6.40;;;;;;;;;;103614;1292;547788;-82
2023/08/25 05:06:01;;;;;;;14.90;6.80;;;;;;;;;;104070;1285;548082;-79
2023/08/25 05:09:38;;;;;;;13.70;6.30;;;;;;;;;;103583;1292;548370;-79
2023/08/25 05:13:16;;;;;;;10.60;6.70;;;;;;;;;;103872;1289;548575;-81
2023/08/25 05:16:53;;;;;;;10.10;5.90;;;;;;;;;;103625;1291;545856;-77
2023/08/25 05:20:31;;;;;;;14.50;6.50;;;;;;;;;;103419;1296;547958;-81
2023/08/25 05:24:22;;;;;;;12.20;7.50;;;;;;;;;;103778;1289;547946;-80
2023/08/25 05:27:46;;;;;;;11.50;7.60;;;;;;;;;;103908;1286;547880;-82
2023/08/25 05:31:23;;;;;;;11.10;6.70;;;;;;;;;;103636;1292;548248;-83
2023/08/25 05:34:55;;;;;;;12.30;6.60;;;;;;;;;;104042;1289;545013;-84
2023/08/25 05:38:38;;;;;;;12.00;6.40;;;;;;;;;;103639;1289;546299;-80
2023/08/25 05:42:10;;;;;;;12.80;7.00;;;;;;;;;;103778;1295;545544;-82
2023/08/25 05:45:53;;;;;;;14.20;7.60;;;;;;;;;;103623;1290;548020;-81
2023/08/25 05:49:25;;;;;;;11.70;6.80;;;;;;;;;;103719;1292;544950;-77
2023/08/25 05:53:10;;;;;;;13.30;6.20;;;;;;;;;;103597;1295;548276;-79
2023/08/25 05:56:45;;;;;;;12.90;5.80;;;;;;;;;;103800;1289;547828;-78
2023/08/25 06:00:23;;;;;;;13.40;6.00;;;;;;;;;;103547;1292;547966;-80
2023/08/25 06:04:01;;;;;;;15.40;6.50;;;;;;;;;;103694;1289;548238;-80
2023/08/25 06:07:38;;;;;;;11.20;5.60;;;;;;;;;;103666;1292;547974;-83
2023/08/25 06:11:15;;;;;;;13.40;6.30;;;;;;;;;;103515;1291;547824;-77
2023/08/25 06:14:47;;;;;;;11.20;6.20;;;;;;;;;;103623;1289;544752;-82
2023/08/25 06:18:24;;;;;;;35.00;29.90;;;;;;;;;;103798;1289;544962;-81
2023/08/25 06:22:02;;;;;;;40.90;32.90;;;;;;;;;;103781;1289;545067;-76
2023/08/25 06:25:45;;;;;;;31.50;22.80;;;;;;;;;;103865;1286;547795;-78
2023/08/25 06:29:23;;;;;;;14.50;8.70;;;;;;;;;;103584;1291;547799;-80
2023/08/25 06:32:54;;;;;;;14.50;10.70;;;;;;;;;;103876;1295;546172;-76
2023/08/25 06:36:32;;;;;;;25.40;18.00;;;;;;;;;;103931;1292;544991;-75
2023/08/25 06:40:10;;;;;;;11.30;6.90;;;;;;;;;;104512;1282;544988;-75
2023/08/25 06:43:53;;;;;;;9.50;5.20;;;;;;;;;;103367;1297;548030;-78
2023/08/25 06:47:20;;;;;;;10.20;5.50;;;;;;;;;;103967;1292;544988;-76
2023/08/25 06:51:09;;;;;;;13.40;6.30;;;;;;;;;;103639;1291;548113;-77
2023/08/25 06:54:46;;;;;;;10.40;4.80;;;;;;;;;;103579;1289;547794;-79
2023/08/25 06:58:23;;;;;;;10.20;4.50;;;;;;;;;;103370;1294;548027;-80
2023/08/25 07:02:01;;;;;;;9.10;4.40;;;;;;;;;;103648;1292;546013;-80
2023/08/25 07:05:37;;;;;;;11.00;4.70;;;;;;;;;;104044;1290;545331;-79
2023/08/25 07:09:17;;;;;;;8.00;4.60;;;;;;;;;;103761;1289;547764;-78
2023/08/25 07:12:53;;;;;;;8.20;4.10;;;;;;;;;;103580;1292;548211;-76
2023/08/25 07:16:31;;;;;;;10.30;4.60;;;;;;;;;;103606;1289;549358;-80
2023/08/25 07:20:08;;;;;;;10.80;5.10;;;;;;;;;;103567;1291;547804;-80
2023/08/25 07:23:43;;;;;;;12.50;4.90;;;;;;;;;;103907;1288;544794;-78
2023/08/25 07:27:18;;;;;;;12.40;5.00;;;;;;;;;;103587;1290;544923;-76
2023/08/25 07:31:01;;;;;;;11.80;4.90;;;;;;;;;;103326;1294;548312;-78
2023/08/25 07:34:42;;;;;;;15.50;5.10;;;;;;;;;;103577;1292;547953;-76
2023/08/25 07:38:15;;;;;;;12.50;4.90;;;;;;;;;;103654;1289;548080;-77
2023/08/25 07:41:53;;;;;;;13.80;4.60;;;;;;;;;;103633;1289;547824;-79
2023/08/25 07:45:31;;;;;;;10.70;4.60;;;;;;;;;;103456;1295;547933;-82
2023/08/25 07:49:08;;;;;;;13.60;4.90;;;;;;;;;;103321;1294;547981;-77
2023/08/25 07:52:45;;;;;;;8.40;4.70;;;;;;;;;;103475;1291;548176;-74
2023/08/25 07:56:18;;;;;;;9.40;4.30;;;;;;;;;;104149;1288;545001;-78
2023/08/25 07:59:55;;;;;;;9.40;4.50;;;;;;;;;;103803;1302;545980;-78
2023/08/25 08:03:32;;;;;;;27.90;6.80;;;;;;;;;;103811;1291;546136;-78
2023/08/25 08:07:15;;;;;;;13.90;4.70;;;;;;;;;;103424;1292;548381;-78
2023/08/25 08:10:47;;;;;;;9.90;4.10;;;;;;;;;;103766;1289;545924;-78
2023/08/25 08:14:32;;;;;;;10.80;4.90;;;;;;;;;;103837;1288;547819;-81
2023/08/25 08:18:11;;;;;;;10.00;4.00;;;;;;;;;;103633;1290;547951;-79
2023/08/25 08:21:39;;;;;;;11.10;4.00;;;;;;;;;;104196;1285;545442;-80
2023/08/25 08:25:19;;;;;;;9.20;3.60;;;;;;;;;;103771;1290;546423;-81
2023/08/25 08:28:54;;;;;;;11.30;4.10;;;;;;;;;;103876;1292;544796;-75
2023/08/25 08:32:35;;;;;;;7.80;3.40;;;;;;;;;;103914;1289;549548;-75
2023/08/25 08:36:09;;;;;;;11.80;4.20;;;;;;;;;;103573;1294;545351;-75
2023/08/25 08:39:44;;;;;;;9.60;3.40;;;;;;;;;;104173;1289;545445;-79
2023/08/25 08:43:35;;;;;;;10.10;3.00;;;;;;;;;;103588;1291;547952;-75
2023/08/25 08:47:01;;;;;;;9.30;3.40;;;;;;;;;;104020;1289;544842;-77
2023/08/25 08:50:44;;;;;;;6.90;3.10;;;;;;;;;;103770;1289;544981;-79
2023/08/25 08:54:23;;;;;;;8.90;2.90;;;;;;;;;;104049;1289;545756;-80
2023/08/25 08:57:58;;;;;;;7.90;3.60;;;;;;;;;;103805;1289;544926;-76
2023/08/25 09:01:35;;;;;;;7.80;3.30;;;;;;;;;;103738;1289;546571;-77
2023/08/25 09:05:15;;;;;;;7.30;3.20;;;;;;;;;;103734;1289;545151;-80
2023/08/25 09:08:52;;;;;;;7.30;3.60;;;;;;;;;;103826;1291;545483;-76
2023/08/25 09:12:29;;;;;;;8.40;3.00;;;;;;;;;;103745;1289;544808;-77
2023/08/25 09:16:12;;;;;;;13.00;3.50;;;;;;;;;;103677;1290;548224;-76
2023/08/25 09:19:43;;;;;;;7.60;3.30;;;;;;;;;;104086;1285;544801;-79
2023/08/25 09:23:20;;;;;;;10.80;3.30;;;;;;;;;;103870;1289;544777;-75
2023/08/25 09:26:58;;;;;;;7.40;3.10;;;;;;;;;;103881;1288;545485;-76
2023/08/25 09:30:42;;;;;;;12.20;3.80;;;;;;;;;;104467;1282;547990;-76
2023/08/25 09:34:13;;;;;;;8.40;3.10;;;;;;;;;;104077;1287;545624;-75
2023/08/25 09:37:56;;;;;;;10.00;3.60;;;;;;;;;;103272;1294;547920;-75
2023/08/25 09:41:28;;;;;;;7.60;3.60;;;;;;;;;;103719;1291;544889;-77
2023/08/25 09:45:05;;;;;;;7.40;2.90;;;;;;;;;;103749;1289;544852;-75
2023/08/25 09:48:44;;;;;;;7.80;3.10;;;;;;;;;;103748;1292;544720;-76
2023/08/25 09:52:21;;;;;;;7.80;3.30;;;;;;;;;;103476;1295;545603;-79
2023/08/25 09:56:06;;;;;;;7.30;3.40;;;;;;;;;;103543;1289;548097;-80
2023/08/25 09:59:40;;;;;;;6.80;3.20;;;;;;;;;;103560;1292;547929;-76
2023/08/25 10:03:18;;;;;;;8.10;3.30;;;;;;;;;;104003;1285;547772;-81
2023/08/25 10:06:50;;;;;;;9.50;3.70;;;;;;;;;;103781;1291;545314;-74
2023/08/25 10:10:33;;;;;;;7.30;2.90;;;;;;;;;;104166;1285;544768;-73
2023/08/25 10:14:05;;;;;;;6.50;3.30;;;;;;;;;;103824;1290;545380;-76
2023/08/25 10:17:48;;;;;;;7.80;3.30;;;;;;;;;;104109;1283;549454;-76
2023/08/25 10:21:25;;;;;;;7.10;3.20;;;;;;;;;;103632;1291;545430;-75
2023/08/25 10:25:03;;;;;;;5.90;2.70;;;;;;;;;;103628;1289;548001;-80
2023/08/25 10:28:35;;;;;;;8.10;2.40;;;;;;;;;;103766;1296;544843;-76
2023/08/25 10:32:09;;;;;;;9.80;3.50;;;;;;;;;;103740;1291;544858;-76
2023/08/25 10:35:54;;;;;;;6.70;3.50;;;;;;;;;;103667;1292;545700;-76
2023/08/25 10:39:49;;;;;;;9.60;3.40;;;;;;;;;;103786;1291;545257;-76
2023/08/25 10:43:04;;;;;;;12.90;2.80;;;;;;;;;;103568;1298;545182;-75
2023/08/25 10:46:59;;;;;;;7.40;2.90;;;;;;;;;;103616;1291;547969;-77
2023/08/25 10:50:30;;;;;;;6.90;2.90;;;;;;;;;;103597;1291;548005;-76
2023/08/25 10:54:02;;;;;;;11.10;3.80;;;;;;;;;;103708;1290;545218;-75
2023/08/25 10:57:40;;;;;;;8.80;2.90;;;;;;;;;;103735;1288;544927;-76
2023/08/25 11:01:16;;;;;;;9.20;3.70;;;;;;;;;;103481;1295;545559;-76
2023/08/25 11:05:14;;;;;;;7.90;3.20;;;;;;;;;;103749;1291;545917;-75
2023/08/25 11:08:32;;;;;;;15.70;4.10;;;;;;;;;;103627;1292;544815;-79
2023/08/25 11:12:15;;;;;;;7.00;3.10;;;;;;;;;;103846;1288;545400;-77
2023/08/25 11:15:46;;;;;;;7.70;3.70;;;;;;;;;;103737;1294;544971;-76
2023/08/25 11:19:25;;;;;;;8.90;3.20;;;;;;;;;;103766;1292;546359;-76
2023/08/25 11:23:01;;;;;;;6.50;3.10;;;;;;;;;;103875;1289;545017;-76
2023/08/25 11:26:39;;;;;;;7.90;3.70;;;;;;;;;;104010;1290;545451;-72
2023/08/25 11:30:16;;;;;;;6.60;3.50;;;;;;;;;;103516;1295;544959;-76
2023/08/25 11:33:54;;;;;;;24.40;4.50;;;;;;;;;;104144;1286;544997;-75
2023/08/25 11:37:38;;;;;;;11.50;3.50;;;;;;;;;;103994;1288;545092;-76
2023/08/25 11:41:15;;;;;;;7.90;3.20;;;;;;;;;;104431;1291;545704;-79
2023/08/25 11:44:47;;;;;;;10.00;3.80;;;;;;;;;;104265;1289;545112;-80
2023/08/25 11:48:32;;;;;;;10.00;3.80;;;;;;;;;;104640;1285;548085;-77
2023/08/25 11:52:07;;;;;;;7.30;3.80;;;;;;;;;;103654;1292;544758;-75
2023/08/25 11:56:01;;;;;;;8.40;3.90;;;;;;;;;;103591;1291;548110;-77
2023/08/25 11:59:29;;;;;;;14.50;4.50;;;;;;;;;;104245;1285;545061;-78
2023/08/25 12:03:12;;;;;;;10.10;3.70;;;;;;;;;;103650;1289;548139;-77
2023/08/25 12:06:38;;;;;;;10.80;4.00;;;;;;;;;;103523;1305;546264;-77
2023/08/25 12:10:18;;;;;;;9.20;4.00;;;;;;;;;;103620;1289;544815;-76
2023/08/25 12:13:52;;;;;;;7.80;3.70;;;;;;;;;;103662;1291;545937;-82
2023/08/25 12:17:30;;;;;;;9.90;4.30;;;;;;;;;;103625;1292;545765;-77
2023/08/25 12:21:07;;;;;;;7.80;3.80;;;;;;;;;;104081;1290;544727;-77
2023/08/25 12:24:45;;;;;;;7.90;3.60;;;;;;;;;;103810;1289;546187;-77
2023/08/25 12:28:22;;;;;;;8.30;3.90;;;;;;;;;;103819;1293;545616;-80
2023/08/25 12:32:00;;;;;;;7.30;3.80;;;;;;;;;;103614;1292;545671;-77
2023/08/25 12:35:37;;;;;;;8.80;3.70;;;;;;;;;;103756;1291;544989;-78
2023/08/25 12:39:15;;;;;;;7.50;3.40;;;;;;;;;;103723;1294;545193;-77
2023/08/25 12:42:57;;;;;;;7.60;3.60;;;;;;;;;;103441;1292;548100;-76
2023/08/25 12:46:35;;;;;;;7.30;3.40;;;;;;;;;;103595;1292;547960;-78
2023/08/25 12:50:07;;;;;;;10.10;3.70;;;;;;;;;;103606;1295;544903;-77
2023/08/25 12:53:44;;;;;;;8.20;3.40;;;;;;;;;;103718;1291;544837;-77
2023/08/25 12:57:27;;;;;;;6.90;3.50;;;;;;;;;;103293;1294;547756;-77
2023/08/25 13:01:06;;;;;;;8.60;3.40;;;;;;;;;;103429;1298;548749;-76
2023/08/25 13:04:42;;;;;;;7.10;3.20;;;;;;;;;;103554;1292;547787;-74
2023/08/25 13:08:14;;;;;;;6.50;3.00;;;;;;;;;;103716;1290;545006;-76
2023/08/25 13:11:52;;;;;;;7.10;3.60;;;;;;;;;;103713;1302;544995;-77
2023/08/25 13:15:29;;;;;;;7.70;3.40;;;;;;;;;;103723;1290;545013;-76
2023/08/25 13:19:06;;;;;;;6.50;3.20;;;;;;;;;;103699;1291;545167;-79
2023/08/25 13:22:50;;;;;;;5.30;2.50;;;;;;;;;;103612;1295;548035;-79
2023/08/25 13:26:27;;;;;;;7.10;2.60;;;;;;;;;;103538;1292;547857;-78
2023/08/25 13:29:59;;;;;;;8.30;3.10;;;;;;;;;;103726;1295;545465;-76
2023/08/25 13:33:36;;;;;;;7.70;3.30;;;;;;;;;;103993;1289;545627;-76
2023/08/25 13:37:14;;;;;;;10.40;3.50;;;;;;;;;;103694;1295;544683;-76
2023/08/25 13:40:57;;;;;;;7.30;2.70;;;;;;;;;;103617;1290;547945;-76
2023/08/25 13:44:38;;;;;;;9.30;2.90;;;;;;;;;;103621;1301;547828;-77
2023/08/25 13:48:12;;;;;;;8.20;3.10;;;;;;;;;;103518;1292;547983;-77
2023/08/25 13:51:50;;;;;;;6.70;2.60;;;;;;;;;;103874;1290;547793;-77
2023/08/25 14:05:49;;;;;;;6.90;2.80;;;;;;;;;;104536;1286;553456;-78
2023/08/25 14:19:03;;;;;;;7.10;2.60;;;;;;;;;;104789;1283;549885;-79
2023/08/25 14:22:04;;;;;;;7.10;2.00;;;;;;;;;;103672;1294;547951;-79
2023/08/25 14:25:39;;;;;;;9.60;2.80;;;;;;;;;;104215;1284;548006;-76
2023/08/25 14:29:11;;;;;;;9.10;2.90;;;;;;;;;;103786;1302;545582;-78
2023/08/25 14:32:48;;;;;;;8.60;2.80;;;;;;;;;;104063;1291;545713;-79
2023/08/25 14:36:25;;;;;;;8.10;3.10;;;;;;;;;;103720;1292;545496;-76
2023/08/25 14:40:04;;;;;;;7.70;2.80;;;;;;;;;;103734;1301;544742;-79
2023/08/25 14:43:46;;;;;;;16.50;2.90;;;;;;;;;;103544;1293;548173;-76
2023/08/25 14:47:24;;;;;;;7.80;2.90;;;;;;;;;;103519;1293;547907;-74
2023/08/25 14:51:01;;;;;;;10.40;2.80;;;;;;;;;;103593;1302;548066;-77
2023/08/25 14:54:33;;;;;;;10.50;2.50;;;;;;;;;;103599;1291;544872;-78
2023/08/25 14:58:10;;;;;;;7.50;2.30;;;;;;;;;;103588;1292;544871;-77
2023/08/25 15:01:48;;;;;;;7.90;2.40;;;;;;;;;;103559;1295;546451;-78
2023/08/25 15:05:25;;;;;;;4.80;2.20;;;;;;;;;;103988;1289;544774;-75
2023/08/25 15:09:09;;;;;;;8.10;2.70;;;;;;;;;;103628;1291;548090;-77
2023/08/25 15:12:46;;;;;;;8.20;3.00;;;;;;;;;;103537;1294;547782;-78
2023/08/25 15:16:23;;;;;;;8.70;3.20;;;;;;;;;;103774;1289;547988;-81
2023/08/25 15:19:56;;;;;;;9.70;3.50;;;;;;;;;;103792;1289;544787;-78
2023/08/25 15:23:33;;;;;;;6.60;2.80;;;;;;;;;;103716;1294;544781;-78
2023/08/25 15:27:10;;;;;;;7.20;2.80;;;;;;;;;;103919;1292;544598;-79
2023/08/25 15:31:00;;;;;;;6.80;3.00;;;;;;;;;;103623;1291;548074;-80
2023/08/25 15:34:31;;;;;;;8.30;3.10;;;;;;;;;;103575;1290;547842;-80
2023/08/25 15:38:08;;;;;;;9.90;3.80;;;;;;;;;;103616;1289;548344;-79
2023/08/25 15:41:40;;;;;;;14.40;4.20;;;;;;;;;;103725;1295;544796;-78
2023/08/25 15:45:23;;;;;;;13.80;3.60;;;;;;;;;;103437;1294;548139;-79
2023/08/25 15:49:01;;;;;;;9.40;3.50;;;;;;;;;;103558;1291;545335;-77
2023/08/25 15:52:38;;;;;;;8.30;3.80;;;;;;;;;;103786;1290;548071;-79
2023/08/25 15:56:15;;;;;;;8.50;3.50;;;;;;;;;;103623;1290;547805;-76
2023/08/25 15:59:47;;;;;;;8.00;2.90;;;;;;;;;;104062;1289;544948;-78
2023/08/25 16:03:30;;;;;;;7.90;2.90;;;;;;;;;;103500;1290;547909;-76
2023/08/25 16:07:08;;;;;;;9.20;3.30;;;;;;;;;;103856;1295;548016;-79
2023/08/25 16:10:40;;;;;;;8.60;3.10;;;;;;;;;;104181;1287;545902;-77
2023/08/25 16:14:23;;;;;;;9.10;2.90;;;;;;;;;;103309;1297;548149;-79
2023/08/25 16:17:58;;;;;;;8.50;3.30;;;;;;;;;;103814;1291;544748;-75
2023/08/25 16:21:38;;;;;;;10.50;3.80;;;;;;;;;;103426;1292;548008;-77
2023/08/25 16:25:09;;;;;;;10.60;3.70;;;;;;;;;;103719;1293;545154;-79
2023/08/25 16:29:08;;;;;;;9.70;2.90;;;;;;;;;;103377;1298;547929;-78
2023/08/25 16:32:24;;;;;;;10.20;3.50;;;;;;;;;;103739;1289;544817;-76
2023/08/25 16:36:03;;;;;;;6.20;2.80;;;;;;;;;;103960;1291;544885;-78
2023/08/25 16:39:39;;;;;;;6.10;2.40;;;;;;;;;;104021;1289;546131;-79
2023/08/25 16:43:23;;;;;;;6.60;3.00;;;;;;;;;;103603;1291;547844;-79
2023/08/25 16:46:55;;;;;;;7.10;2.50;;;;;;;;;;103798;1295;546695;-77
2023/08/25 16:50:35;;;;;;;6.90;2.70;;;;;;;;;;103907;1291;544792;-76
2023/08/25 16:54:09;;;;;;;8.10;3.20;;;;;;;;;;104197;1286;544801;-77
2023/08/25 16:57:47;;;;;;;9.80;3.10;;;;;;;;;;103716;1290;544960;-78
2023/08/25 17:01:24;;;;;;;7.90;3.00;;;;;;;;;;104042;1291;545094;-79
2023/08/25 17:04:58;;;;;;;7.60;3.40;;;;;;;;;;104000;1295;545626;-77
2023/08/25 17:08:41;;;;;;;7.40;3.00;;;;;;;;;;103901;1292;545526;-76
2023/08/25 17:12:25;;;;;;;7.00;2.80;;;;;;;;;;103704;1298;548146;-76
2023/08/25 17:15:58;;;;;;;7.30;3.00;;;;;;;;;;103859;1289;545642;-75
2023/08/25 17:19:39;;;;;;;6.50;3.10;;;;;;;;;;103577;1292;547906;-77
2023/08/25 17:23:11;;;;;;;5.80;2.60;;;;;;;;;;104176;1286;545285;-78
2023/08/25 17:26:48;;;;;;;7.70;2.70;;;;;;;;;;103682;1292;545781;-77
2023/08/25 17:30:28;;;;;;;13.70;4.00;;;;;;;;;;103759;1289;547985;-76
2023/08/25 17:34:03;;;;;;;7.70;3.20;;;;;;;;;;103349;1295;545081;-79
2023/08/25 17:37:46;;;;;;;6.20;3.40;;;;;;;;;;103553;1292;548397;-77
2023/08/25 17:41:24;;;;;;;8.20;2.90;;;;;;;;;;103604;1292;548246;-78
2023/08/25 17:44:55;;;;;;;9.50;3.60;;;;;;;;;;103598;1291;545133;-76
2023/08/25 17:48:33;;;;;;;7.60;3.30;;;;;;;;;;104594;1283;544998;-77
2023/08/25 17:52:16;;;;;;;8.40;4.00;;;;;;;;;;103253;1294;547771;-79
2023/08/25 17:55:48;;;;;;;9.70;3.70;;;;;;;;;;103738;1292;544772;-76
2023/08/25 17:59:33;;;;;;;9.10;3.60;;;;;;;;;;103622;1290;547942;-77
2023/08/25 18:03:09;;;;;;;9.20;4.30;;;;;;;;;;103650;1290;547976;-77
2023/08/25 18:06:40;;;;;;;10.40;4.10;;;;;;;;;;103783;1291;544779;-76
2023/08/25 18:10:18;;;;;;;7.80;4.20;;;;;;;;;;103883;1291;545362;-75
2023/08/25 18:13:55;;;;;;;15.20;7.30;;;;;;;;;;103785;1292;544815;-77
2023/08/25 18:17:33;;;;;;;11.30;6.20;;;;;;;;;;103758;1292;545056;-76
2023/08/25 18:21:10;;;;;;;15.60;6.50;;;;;;;;;;103862;1289;545009;-77
2023/08/25 18:24:47;;;;;;;16.00;7.60;;;;;;;;;;103982;1292;545011;-78
2023/08/25 18:28:24;;;;;;;15.70;8.00;;;;;;;;;;103799;1289;546061;-77
2023/08/25 18:32:08;;;;;;;15.10;7.30;;;;;;;;;;103660;1289;548332;-78
2023/08/25 18:35:45;;;;;;;14.30;6.90;;;;;;;;;;103266;1294;547798;-75
2023/08/25 18:39:15;;;;;;;12.20;5.30;;;;;;;;;;103826;1289;545231;-78
2023/08/25 18:42:57;;;;;;;9.50;4.80;;;;;;;;;;103737;1291;545403;-75
2023/08/25 18:46:40;;;;;;;9.50;4.10;;;;;;;;;;103670;1289;547978;-78
2023/08/25 18:50:17;;;;;;;12.30;4.80;;;;;;;;;;104379;1283;547979;-78
2023/08/25 18:53:55;;;;;;;10.70;4.20;;;;;;;;;;103636;1290;547989;-80
2023/08/25 18:57:32;;;;;;;10.00;3.90;;;;;;;;;;103810;1290;548576;-76
2023/08/25 19:01:05;;;;;;;12.10;4.30;;;;;;;;;;103666;1292;544820;-79
2023/08/25 19:04:47;;;;;;;12.80;4.20;;;;;;;;;;103615;1292;547934;-77
2023/08/25 19:08:25;;;;;;;10.80;4.50;;;;;;;;;;103558;1291;545356;-78
2023/08/25 19:12:02;;;;;;;10.90;4.30;;;;;;;;;;103290;1294;548056;-77
2023/08/25 19:26:07;;;;;;;8.70;4.00;;;;;;;;;;104401;1285;553560;-78
2023/08/25 19:39:22;;;;;;;9.90;4.60;;;;;;;;;;103973;1288;553753;-79
2023/08/25 19:42:20;;;;;;;9.50;4.00;;;;;;;;;;104242;1285;548072;-80
2023/08/25 19:45:52;;;;;;;10.40;4.30;;;;;;;;;;104016;1289;545456;-79
2023/08/25 19:49:30;;;;;;;8.70;4.70;;;;;;;;;;104165;1286;545113;-78
2023/08/25 19:53:12;;;;;;;11.00;4.90;;;;;;;;;;103594;1291;547767;-80
2023/08/25 19:56:44;;;;;;;11.20;4.80;;;;;;;;;;103925;1293;544792;-78
2023/08/25 20:00:27;;;;;;;10.30;4.40;;;;;;;;;;103649;1291;547984;-79
2023/08/25 20:04:05;;;;;;;11.50;4.10;;;;;;;;;;103683;1292;547900;-77
2023/08/25 20:07:42;;;;;;;8.90;4.00;;;;;;;;;;103691;1292;548080;-77
2023/08/25 20:11:16;;;;;;;9.70;4.30;;;;;;;;;;103642;1291;545834;-78
2023/08/25 20:14:57;;;;;;;9.20;4.20;;;;;;;;;;103826;1288;548118;-78
2023/08/25 20:18:29;;;;;;;8.10;3.50;;;;;;;;;;103743;1292;544933;-75
2023/08/25 20:22:12;;;;;;;9.50;4.10;;;;;;;;;;103564;1291;547839;-78
2023/08/25 20:25:48;;;;;;;7.40;4.00;;;;;;;;;;103724;1298;544724;-77
2023/08/25 20:29:27;;;;;;;10.50;4.10;;;;;;;;;;103987;1289;547992;-80
2023/08/25 20:43:27;;;;;;;9.10;3.70;;;;;;;;;;104336;1285;554329;-79
2023/08/25 20:46:24;;;;;;;8.50;4.00;;;;;;;;;;103637;1292;547980;-76
2023/08/25 20:50:02;;;;;;;9.30;4.50;;;;;;;;;;103586;1292;547979;-76
2023/08/25 20:53:39;;;;;;;8.10;4.10;;;;;;;;;;103245;1299;548862;-78
2023/08/25 20:57:11;;;;;;;8.30;4.00;;;;;;;;;;103786;1292;545213;-77
2023/08/25 21:00:49;;;;;;;8.50;3.70;;;;;;;;;;103706;1292;545441;-77
2023/08/25 21:04:32;;;;;;;8.50;3.30;;;;;;;;;;103600;1295;548443;-75
2023/08/25 21:08:09;;;;;;;7.40;4.10;;;;;;;;;;103780;1288;548073;-77
2023/08/25 21:11:47;;;;;;;8.30;3.90;;;;;;;;;;103540;1291;547950;-78
2023/08/25 21:15:24;;;;;;;8.40;4.10;;;;;;;;;;103654;1292;548275;-76
2023/08/25 21:19:09;;;;;;;9.10;3.90;;;;;;;;;;103566;1303;548107;-79
2023/08/25 21:22:39;;;;;;;8.80;3.50;;;;;;;;;;103544;1291;548068;-79
2023/08/25 21:26:18;;;;;;;10.10;3.50;;;;;;;;;;103254;1295;547985;-75
2023/08/25 21:30:00;;;;;;;8.60;4.10;;;;;;;;;;103562;1294;547806;-80
2023/08/25 21:33:31;;;;;;;7.50;4.00;;;;;;;;;;103478;1294;546068;-81
2023/08/25 21:37:09;;;;;;;8.20;3.90;;;;;;;;;;103884;1288;547772;-79
2023/08/25 21:40:46;;;;;;;9.40;4.10;;;;;;;;;;103245;1294;548014;-77
2023/08/25 21:44:14;;;;;;;8.50;4.00;;;;;;;;;;103823;1289;544994;-79